sensor_id;sensor_type;location;lat;lon;timestamp;temperature;humidity
36548;DHT22;22551;52.206;4.856;2023-02-01T00:00:04;6.20;99.90
36548;DHT22;22551;52.206;4.856;2023-02-01T00:05:08;6.20;99.90
36548;DHT22;22551;52.206;4.856;2023-02-01T00:10:11;6.10;99.90
36548;DHT22;22551;52.206;4.856;2023-02-01T00:15:15;6.10;99.90
36548;DHT22;22551;52.206;4.856;2023-02-01T00:20:17;6.20;99.90
36548;DHT22;22551;52.206;4.856;2023-02-01T00:25:20;6.20;99.90
36548;DHT22;22551;52.206;4.856;2023-02-01T00:30:23;6.30;99.90
36548;DHT22;22551;52.206;4.856;2023-02-01T00:35:25;6.40;99.90
36548;DHT22;22551;52.206;4.856;2023-02-01T00:40:27;6.40;99.90
36548;DHT22;22551;52.206;4.856;2023-02-01T00:45:31;6.40;99.90
36548;DHT22;22551;52.206;4.856;2023-02-01T00:50:33;6.40;99.90
36548;DHT22;22551;52.206;4.856;2023-02-01T00:55:35;6.20;99.90
36548;DHT22;22551;52.206;4.856;2023-02-01T01:00:39;6.20;99.90
36548;DHT22;22551;52.206;4.856;2023-02-01T01:05:41;6.30;99.90
36548;DHT22;22551;52.206;4.856;2023-02-01T01:10:44;6.30;99.90
36548;DHT22;22551;52.206;4.856;2023-02-01T01:15:47;6.20;99.90
36548;DHT22;22551;52.206;4.856;2023-02-01T01:20:49;6.20;99.90
36548;DHT22;22551;52.206;4.856;2023-02-01T01:25:52;6.30;99.90
36548;DHT22;22551;52.206;4.856;2023-02-01T01:30:55;6.30;99.90
36548;DHT22;22551;52.206;4.856;2023-02-01T01:35:57;6.40;99.90
36548;DHT22;22551;52.206;4.856;2023-02-01T01:40:59;6.50;99.90
36548;DHT22;22551;52.206;4.856;2023-02-01T01:46:03;6.60;99.90
36548;DHT22;22551;52.206;4.856;2023-02-01T01:51:08;6.60;99.90
36548;DHT22;22551;52.206;4.856;2023-02-01T01:56:12;6.70;99.90
36548;DHT22;22551;52.206;4.856;2023-02-01T02:01:16;6.70;99.90
36548;DHT22;22551;52.206;4.856;2023-02-01T02:06:26;6.70;99.90
36548;DHT22;22551;52.206;4.856;2023-02-01T02:11:32;6.80;99.90
36548;DHT22;22551;52.206;4.856;2023-02-01T02:16:55;6.80;99.90
36548;DHT22;22551;52.206;4.856;2023-02-01T02:22:29;6.80;99.90
36548;DHT22;22551;52.206;4.856;2023-02-01T02:27:51;6.80;99.90
36548;DHT22;22551;52.206;4.856;2023-02-01T02:38:52;6.80;99.90
36548;DHT22;22551;52.206;4.856;2023-02-01T02:43:59;6.80;99.90
36548;DHT22;22551;52.206;4.856;2023-02-01T02:49:26;6.80;99.90
36548;DHT22;22551;52.206;4.856;2023-02-01T02:54:32;6.80;99.90
36548;DHT22;22551;52.206;4.856;2023-02-01T02:59:52;6.80;99.90
36548;DHT22;22551;52.206;4.856;2023-02-01T03:05:13;6.70;99.90
36548;DHT22;22551;52.206;4.856;2023-02-01T03:10:20;6.70;99.90
36548;DHT22;22551;52.206;4.856;2023-02-01T03:15:32;6.60;99.90
36548;DHT22;22551;52.206;4.856;2023-02-01T03:20:40;6.60;99.90
36548;DHT22;22551;52.206;4.856;2023-02-01T03:25:47;6.50;99.90
36548;DHT22;22551;52.206;4.856;2023-02-01T03:30:50;6.50;99.90
36548;DHT22;22551;52.206;4.856;2023-02-01T03:36:01;6.40;99.90
36548;DHT22;22551;52.206;4.856;2023-02-01T03:41:12;6.40;99.90
36548;DHT22;22551;52.206;4.856;2023-02-01T03:46:22;6.40;99.90
36548;DHT22;22551;52.206;4.856;2023-02-01T03:51:30;6.50;99.90
36548;DHT22;22551;52.206;4.856;2023-02-01T03:56:35;6.60;99.90
36548;DHT22;22551;52.206;4.856;2023-02-01T04:01:38;6.60;99.90
36548;DHT22;22551;52.206;4.856;2023-02-01T04:06:42;6.60;99.90
36548;DHT22;22551;52.206;4.856;2023-02-01T04:11:44;6.60;99.90
36548;DHT22;22551;52.206;4.856;2023-02-01T04:16:47;6.60;99.90
36548;DHT22;22551;52.206;4.856;2023-02-01T04:21:50;6.50;99.90
36548;DHT22;22551;52.206;4.856;2023-02-01T04:26:52;6.50;99.90
36548;DHT22;22551;52.206;4.856;2023-02-01T04:31:54;6.40;99.90
36548;DHT22;22551;52.206;4.856;2023-02-01T04:36:58;6.30;99.90
36548;DHT22;22551;52.206;4.856;2023-02-01T04:42:00;6.20;99.90
36548;DHT22;22551;52.206;4.856;2023-02-01T04:47:02;6.20;99.90
36548;DHT22;22551;52.206;4.856;2023-02-01T04:52:06;6.10;99.90
36548;DHT22;22551;52.206;4.856;2023-02-01T04:57:09;6.10;99.90
36548;DHT22;22551;52.206;4.856;2023-02-01T05:02:11;6.10;99.90
36548;DHT22;22551;52.206;4.856;2023-02-01T05:07:15;6.20;99.90
36548;DHT22;22551;52.206;4.856;2023-02-01T05:12:17;6.10;99.90
36548;DHT22;22551;52.206;4.856;2023-02-01T05:17:37;6.00;99.90
36548;DHT22;22551;52.206;4.856;2023-02-01T05:22:42;6.10;99.90
36548;DHT22;22551;52.206;4.856;2023-02-01T05:27:44;6.20;99.90
36548;DHT22;22551;52.206;4.856;2023-02-01T05:32:49;6.20;99.90
36548;DHT22;22551;52.206;4.856;2023-02-01T05:37:53;6.30;99.90
36548;DHT22;22551;52.206;4.856;2023-02-01T05:42:55;6.40;99.90
36548;DHT22;22551;52.206;4.856;2023-02-01T05:47:57;6.30;99.90
36548;DHT22;22551;52.206;4.856;2023-02-01T05:53:01;6.30;99.90
36548;DHT22;22551;52.206;4.856;2023-02-01T05:58:03;6.30;99.90
36548;DHT22;22551;52.206;4.856;2023-02-01T06:03:05;6.20;99.90
36548;DHT22;22551;52.206;4.856;2023-02-01T06:08:09;6.20;99.90
36548;DHT22;22551;52.206;4.856;2023-02-01T06:13:11;6.10;99.90
36548;DHT22;22551;52.206;4.856;2023-02-01T06:18:13;6.10;99.90
36548;DHT22;22551;52.206;4.856;2023-02-01T06:23:18;6.10;99.90
36548;DHT22;22551;52.206;4.856;2023-02-01T06:28:20;6.10;99.90
36548;DHT22;22551;52.206;4.856;2023-02-01T06:33:23;6.10;99.90
36548;DHT22;22551;52.206;4.856;2023-02-01T06:38:27;6.10;99.90
36548;DHT22;22551;52.206;4.856;2023-02-01T06:43:30;6.10;99.90
36548;DHT22;22551;52.206;4.856;2023-02-01T06:48:33;6.30;99.90
36548;DHT22;22551;52.206;4.856;2023-02-01T06:53:37;6.20;99.90
36548;DHT22;22551;52.206;4.856;2023-02-01T06:58:39;6.30;99.90
36548;DHT22;22551;52.206;4.856;2023-02-01T07:03:42;6.30;99.90
36548;DHT22;22551;52.206;4.856;2023-02-01T07:08:45;6.40;99.90
36548;DHT22;22551;52.206;4.856;2023-02-01T07:13:48;6.40;99.90
36548;DHT22;22551;52.206;4.856;2023-02-01T07:18:51;6.50;99.90
36548;DHT22;22551;52.206;4.856;2023-02-01T07:23:55;6.40;99.90
36548;DHT22;22551;52.206;4.856;2023-02-01T07:28:57;6.40;99.90
36548;DHT22;22551;52.206;4.856;2023-02-01T07:34:00;6.30;99.90
36548;DHT22;22551;52.206;4.856;2023-02-01T07:39:04;6.20;99.90
36548;DHT22;22551;52.206;4.856;2023-02-01T07:44:06;6.30;99.90
36548;DHT22;22551;52.206;4.856;2023-02-01T07:49:09;6.20;99.90
36548;DHT22;22551;52.206;4.856;2023-02-01T07:54:14;6.30;99.90
36548;DHT22;22551;52.206;4.856;2023-02-01T07:59:16;6.30;99.90
36548;DHT22;22551;52.206;4.856;2023-02-01T08:04:18;6.20;99.90
36548;DHT22;22551;52.206;4.856;2023-02-01T08:09:22;6.20;99.90
36548;DHT22;22551;52.206;4.856;2023-02-01T08:14:24;6.10;99.90
36548;DHT22;22551;52.206;4.856;2023-02-01T08:19:26;6.10;99.90
36548;DHT22;22551;52.206;4.856;2023-02-01T08:24:30;6.20;99.90
36548;DHT22;22551;52.206;4.856;2023-02-01T08:29:32;6.20;99.90
36548;DHT22;22551;52.206;4.856;2023-02-01T08:34:34;6.20;99.90
36548;DHT22;22551;52.206;4.856;2023-02-01T08:39:38;6.30;99.90
36548;DHT22;22551;52.206;4.856;2023-02-01T08:44:40;6.40;99.90
36548;DHT22;22551;52.206;4.856;2023-02-01T08:49:43;6.50;99.90
36548;DHT22;22551;52.206;4.856;2023-02-01T08:54:46;6.70;99.90
36548;DHT22;22551;52.206;4.856;2023-02-01T08:59:49;6.90;99.90
36548;DHT22;22551;52.206;4.856;2023-02-01T09:04:51;7.00;99.90
36548;DHT22;22551;52.206;4.856;2023-02-01T09:09:55;7.10;99.90
36548;DHT22;22551;52.206;4.856;2023-02-01T09:15:01;7.20;99.90
36548;DHT22;22551;52.206;4.856;2023-02-01T09:20:04;7.20;99.90
36548;DHT22;22551;52.206;4.856;2023-02-01T09:25:09;7.20;99.90
36548;DHT22;22551;52.206;4.856;2023-02-01T09:30:12;7.20;99.90
36548;DHT22;22551;52.206;4.856;2023-02-01T09:35:15;7.20;99.90
36548;DHT22;22551;52.206;4.856;2023-02-01T09:40:19;7.30;99.90
36548;DHT22;22551;52.206;4.856;2023-02-01T09:45:26;7.30;99.90
36548;DHT22;22551;52.206;4.856;2023-02-01T09:50:34;7.30;99.90
36548;DHT22;22551;52.206;4.856;2023-02-01T09:55:41;7.20;99.90
36548;DHT22;22551;52.206;4.856;2023-02-01T10:00:49;7.20;99.90
36548;DHT22;22551;52.206;4.856;2023-02-01T10:06:09;7.10;99.90
36548;DHT22;22551;52.206;4.856;2023-02-01T10:11:27;7.00;99.90
36548;DHT22;22551;52.206;4.856;2023-02-01T10:16:53;6.90;99.90
36548;DHT22;22551;52.206;4.856;2023-02-01T10:22:00;7.00;99.90
36548;DHT22;22551;52.206;4.856;2023-02-01T10:27:13;7.00;99.90
36548;DHT22;22551;52.206;4.856;2023-02-01T10:32:21;7.10;99.90
36548;DHT22;22551;52.206;4.856;2023-02-01T10:37:28;7.10;99.90
36548;DHT22;22551;52.206;4.856;2023-02-01T10:42:33;7.30;99.90
36548;DHT22;22551;52.206;4.856;2023-02-01T10:47:35;7.40;99.90
36548;DHT22;22551;52.206;4.856;2023-02-01T10:52:41;7.50;99.90
36548;DHT22;22551;52.206;4.856;2023-02-01T10:57:56;7.50;99.90
36548;DHT22;22551;52.206;4.856;2023-02-01T11:02:59;7.40;99.90
36548;DHT22;22551;52.206;4.856;2023-02-01T11:08:02;7.40;99.90
36548;DHT22;22551;52.206;4.856;2023-02-01T11:13:13;7.40;99.90
36548;DHT22;22551;52.206;4.856;2023-02-01T11:18:19;7.50;99.90
36548;DHT22;22551;52.206;4.856;2023-02-01T11:23:31;7.70;99.90
36548;DHT22;22551;52.206;4.856;2023-02-01T11:28:40;7.80;99.90
36548;DHT22;22551;52.206;4.856;2023-02-01T11:33:52;7.80;99.90
36548;DHT22;22551;52.206;4.856;2023-02-01T11:39:10;7.90;99.90
36548;DHT22;22551;52.206;4.856;2023-02-01T11:44:25;7.90;99.90
36548;DHT22;22551;52.206;4.856;2023-02-01T11:49:31;7.80;99.90
36548;DHT22;22551;52.206;4.856;2023-02-01T11:54:58;7.80;99.90
36548;DHT22;22551;52.206;4.856;2023-02-01T12:00:28;7.90;99.90
36548;DHT22;22551;52.206;4.856;2023-02-01T12:05:47;8.10;99.90
36548;DHT22;22551;52.206;4.856;2023-02-01T12:11:08;8.20;99.90
36548;DHT22;22551;52.206;4.856;2023-02-01T12:16:28;8.30;99.90
36548;DHT22;22551;52.206;4.856;2023-02-01T12:21:45;8.30;99.90
36548;DHT22;22551;52.206;4.856;2023-02-01T12:27:04;8.20;99.90
36548;DHT22;22551;52.206;4.856;2023-02-01T12:32:25;8.30;99.90
36548;DHT22;22551;52.206;4.856;2023-02-01T12:37:51;8.30;99.90
36548;DHT22;22551;52.206;4.856;2023-02-01T12:43:02;8.60;99.90
36548;DHT22;22551;52.206;4.856;2023-02-01T12:48:21;8.80;99.90
36548;DHT22;22551;52.206;4.856;2023-02-01T12:53:42;8.90;99.90
36548;DHT22;22551;52.206;4.856;2023-02-01T12:58:49;9.00;99.90
36548;DHT22;22551;52.206;4.856;2023-02-01T13:03:59;8.90;99.90
36548;DHT22;22551;52.206;4.856;2023-02-01T13:09:14;8.90;99.90
36548;DHT22;22551;52.206;4.856;2023-02-01T13:14:28;8.80;99.90
36548;DHT22;22551;52.206;4.856;2023-02-01T13:19:45;8.70;99.90
36548;DHT22;22551;52.206;4.856;2023-02-01T13:24:53;8.60;99.90
36548;DHT22;22551;52.206;4.856;2023-02-01T13:29:59;8.50;99.90
36548;DHT22;22551;52.206;4.856;2023-02-01T13:35:22;8.50;99.90
36548;DHT22;22551;52.206;4.856;2023-02-01T13:40:39;8.60;99.90
36548;DHT22;22551;52.206;4.856;2023-02-01T13:45:46;8.50;99.90
36548;DHT22;22551;52.206;4.856;2023-02-01T13:50:57;8.50;99.90
36548;DHT22;22551;52.206;4.856;2023-02-01T13:56:02;8.60;99.90
36548;DHT22;22551;52.206;4.856;2023-02-01T14:06:46;8.50;99.90
36548;DHT22;22551;52.206;4.856;2023-02-01T14:11:49;8.50;99.90
36548;DHT22;22551;52.206;4.856;2023-02-01T14:22:40;8.40;99.90
36548;DHT22;22551;52.206;4.856;2023-02-01T14:27:43;8.40;99.90
36548;DHT22;22551;52.206;4.856;2023-02-01T14:32:46;8.40;99.90
36548;DHT22;22551;52.206;4.856;2023-02-01T14:37:53;8.30;99.90
36548;DHT22;22551;52.206;4.856;2023-02-01T14:43:00;8.30;99.90
36548;DHT22;22551;52.206;4.856;2023-02-01T14:48:43;8.30;99.90
36548;DHT22;22551;52.206;4.856;2023-02-01T14:53:48;8.20;99.90
36548;DHT22;22551;52.206;4.856;2023-02-01T14:58:56;8.20;99.90
36548;DHT22;22551;52.206;4.856;2023-02-01T15:04:03;8.10;99.90
36548;DHT22;22551;52.206;4.856;2023-02-01T15:09:12;8.20;99.90
36548;DHT22;22551;52.206;4.856;2023-02-01T15:14:16;8.10;99.90
36548;DHT22;22551;52.206;4.856;2023-02-01T15:19:20;8.20;99.90
36548;DHT22;22551;52.206;4.856;2023-02-01T15:24:26;8.20;99.90
36548;DHT22;22551;52.206;4.856;2023-02-01T15:29:30;8.10;99.90
36548;DHT22;22551;52.206;4.856;2023-02-01T15:34:54;8.10;99.90
36548;DHT22;22551;52.206;4.856;2023-02-01T15:40:19;8.00;99.90
36548;DHT22;22551;52.206;4.856;2023-02-01T15:45:26;8.10;99.90
36548;DHT22;22551;52.206;4.856;2023-02-01T15:50:32;7.90;99.90
36548;DHT22;22551;52.206;4.856;2023-02-01T15:55:38;7.80;99.90
36548;DHT22;22551;52.206;4.856;2023-02-01T16:00:44;7.70;99.90
36548;DHT22;22551;52.206;4.856;2023-02-01T16:05:55;7.70;99.90
36548;DHT22;22551;52.206;4.856;2023-02-01T16:11:22;7.70;99.90
36548;DHT22;22551;52.206;4.856;2023-02-01T16:16:29;7.80;99.90
36548;DHT22;22551;52.206;4.856;2023-02-01T16:21:31;7.90;99.90
36548;DHT22;22551;52.206;4.856;2023-02-01T16:26:34;7.80;99.90
36548;DHT22;22551;52.206;4.856;2023-02-01T16:31:38;7.90;99.90
36548;DHT22;22551;52.206;4.856;2023-02-01T16:36:41;7.90;99.90
36548;DHT22;22551;52.206;4.856;2023-02-01T16:41:45;7.90;99.90
36548;DHT22;22551;52.206;4.856;2023-02-01T16:46:48;8.00;99.90
36548;DHT22;22551;52.206;4.856;2023-02-01T16:51:52;8.00;99.90
36548;DHT22;22551;52.206;4.856;2023-02-01T16:56:59;8.00;99.90
36548;DHT22;22551;52.206;4.856;2023-02-01T17:02:01;8.00;99.90
36548;DHT22;22551;52.206;4.856;2023-02-01T17:07:03;8.00;99.90
36548;DHT22;22551;52.206;4.856;2023-02-01T17:12:18;8.00;99.90
36548;DHT22;22551;52.206;4.856;2023-02-01T17:17:24;8.00;99.90
36548;DHT22;22551;52.206;4.856;2023-02-01T17:22:29;8.00;99.90
36548;DHT22;22551;52.206;4.856;2023-02-01T17:27:32;7.90;99.90
36548;DHT22;22551;52.206;4.856;2023-02-01T17:32:36;7.90;99.90
36548;DHT22;22551;52.206;4.856;2023-02-01T17:37:42;7.90;99.90
36548;DHT22;22551;52.206;4.856;2023-02-01T17:42:45;7.90;99.90
36548;DHT22;22551;52.206;4.856;2023-02-01T17:47:48;7.90;99.90
36548;DHT22;22551;52.206;4.856;2023-02-01T17:52:50;8.00;99.90
36548;DHT22;22551;52.206;4.856;2023-02-01T17:57:54;8.00;99.90
36548;DHT22;22551;52.206;4.856;2023-02-01T18:02:58;8.10;99.90
36548;DHT22;22551;52.206;4.856;2023-02-01T18:08:01;8.10;99.90
36548;DHT22;22551;52.206;4.856;2023-02-01T18:13:05;8.10;99.90
36548;DHT22;22551;52.206;4.856;2023-02-01T18:18:07;8.10;99.90
36548;DHT22;22551;52.206;4.856;2023-02-01T18:23:15;8.20;99.90
36548;DHT22;22551;52.206;4.856;2023-02-01T18:28:20;8.20;99.90
36548;DHT22;22551;52.206;4.856;2023-02-01T18:33:24;8.20;99.90
36548;DHT22;22551;52.206;4.856;2023-02-01T18:38:27;8.20;99.90
36548;DHT22;22551;52.206;4.856;2023-02-01T18:43:30;8.20;99.90
36548;DHT22;22551;52.206;4.856;2023-02-01T18:48:32;8.20;99.90
36548;DHT22;22551;52.206;4.856;2023-02-01T18:53:34;8.30;99.90
36548;DHT22;22551;52.206;4.856;2023-02-01T18:58:38;8.30;99.90
36548;DHT22;22551;52.206;4.856;2023-02-01T19:03:41;8.30;99.90
36548;DHT22;22551;52.206;4.856;2023-02-01T19:08:44;8.30;99.90
36548;DHT22;22551;52.206;4.856;2023-02-01T19:13:49;8.30;99.90
36548;DHT22;22551;52.206;4.856;2023-02-01T19:18:51;8.30;99.90
36548;DHT22;22551;52.206;4.856;2023-02-01T19:23:54;8.30;99.90
36548;DHT22;22551;52.206;4.856;2023-02-01T19:28:58;8.30;99.90
36548;DHT22;22551;52.206;4.856;2023-02-01T19:34:01;8.20;99.90
36548;DHT22;22551;52.206;4.856;2023-02-01T19:39:03;8.30;99.90
36548;DHT22;22551;52.206;4.856;2023-02-01T19:44:07;8.20;99.90
36548;DHT22;22551;52.206;4.856;2023-02-01T19:49:09;8.20;99.90
36548;DHT22;22551;52.206;4.856;2023-02-01T19:54:12;8.30;99.90
36548;DHT22;22551;52.206;4.856;2023-02-01T19:59:16;8.20;99.90
36548;DHT22;22551;52.206;4.856;2023-02-01T20:04:19;8.20;99.90
36548;DHT22;22551;52.206;4.856;2023-02-01T20:09:23;8.20;99.90
36548;DHT22;22551;52.206;4.856;2023-02-01T20:14:28;8.20;99.90
36548;DHT22;22551;52.206;4.856;2023-02-01T20:19:30;8.20;99.90
36548;DHT22;22551;52.206;4.856;2023-02-01T20:24:33;8.20;99.90
36548;DHT22;22551;52.206;4.856;2023-02-01T20:29:38;8.20;99.90
36548;DHT22;22551;52.206;4.856;2023-02-01T20:34:41;8.20;99.90
36548;DHT22;22551;52.206;4.856;2023-02-01T20:39:43;8.20;99.90
36548;DHT22;22551;52.206;4.856;2023-02-01T20:44:47;8.20;99.90
36548;DHT22;22551;52.206;4.856;2023-02-01T20:49:49;8.20;99.90
36548;DHT22;22551;52.206;4.856;2023-02-01T20:54:51;8.20;99.90
36548;DHT22;22551;52.206;4.856;2023-02-01T20:59:55;8.20;99.90
36548;DHT22;22551;52.206;4.856;2023-02-01T21:04:57;8.20;99.90
36548;DHT22;22551;52.206;4.856;2023-02-01T21:09:59;8.10;99.90
36548;DHT22;22551;52.206;4.856;2023-02-01T21:15:03;8.10;99.90
36548;DHT22;22551;52.206;4.856;2023-02-01T21:20:08;8.20;99.90
36548;DHT22;22551;52.206;4.856;2023-02-01T21:25:11;8.20;99.90
36548;DHT22;22551;52.206;4.856;2023-02-01T21:30:15;8.20;99.90
36548;DHT22;22551;52.206;4.856;2023-02-01T21:35:18;8.30;99.90
36548;DHT22;22551;52.206;4.856;2023-02-01T21:40:21;8.30;99.90
36548;DHT22;22551;52.206;4.856;2023-02-01T21:45:24;8.30;99.90
36548;DHT22;22551;52.206;4.856;2023-02-01T21:50:27;8.30;99.90
36548;DHT22;22551;52.206;4.856;2023-02-01T21:55:29;8.20;99.90
36548;DHT22;22551;52.206;4.856;2023-02-01T22:00:35;8.30;99.90
36548;DHT22;22551;52.206;4.856;2023-02-01T22:05:38;8.20;99.90
36548;DHT22;22551;52.206;4.856;2023-02-01T22:10:41;8.20;99.90
36548;DHT22;22551;52.206;4.856;2023-02-01T22:15:45;8.10;99.90
36548;DHT22;22551;52.206;4.856;2023-02-01T22:20:47;8.00;99.90
36548;DHT22;22551;52.206;4.856;2023-02-01T22:25:49;8.00;99.90
36548;DHT22;22551;52.206;4.856;2023-02-01T22:30:53;8.00;99.90
36548;DHT22;22551;52.206;4.856;2023-02-01T22:35:56;7.90;99.90
36548;DHT22;22551;52.206;4.856;2023-02-01T22:41:00;7.90;99.90
36548;DHT22;22551;52.206;4.856;2023-02-01T22:46:06;7.90;99.90
36548;DHT22;22551;52.206;4.856;2023-02-01T22:51:14;8.00;99.90
36548;DHT22;22551;52.206;4.856;2023-02-01T22:56:17;7.90;99.90
36548;DHT22;22551;52.206;4.856;2023-02-01T23:01:20;7.90;99.90
36548;DHT22;22551;52.206;4.856;2023-02-01T23:06:23;7.90;99.90
36548;DHT22;22551;52.206;4.856;2023-02-01T23:11:26;7.80;99.90
36548;DHT22;22551;52.206;4.856;2023-02-01T23:16:30;7.80;99.90
36548;DHT22;22551;52.206;4.856;2023-02-01T23:21:33;7.80;99.90
36548;DHT22;22551;52.206;4.856;2023-02-01T23:26:36;7.80;99.90
36548;DHT22;22551;52.206;4.856;2023-02-01T23:31:40;7.90;99.90
36548;DHT22;22551;52.206;4.856;2023-02-01T23:36:42;7.80;99.90
36548;DHT22;22551;52.206;4.856;2023-02-01T23:41:44;7.80;99.90
36548;DHT22;22551;52.206;4.856;2023-02-01T23:46:48;7.80;99.90
36548;DHT22;22551;52.206;4.856;2023-02-01T23:51:50;7.80;99.90
36548;DHT22;22551;52.206;4.856;2023-02-01T23:56:53;7.80;99.90
